sensor_id;sensor_type;location;lat;lon;timestamp;temperature;humidity
32895;DHT22;19251;49.484;8.260;2023-04-20T00:04:06;7.50;11.00
32895;DHT22;19251;49.484;8.260;2023-04-20T00:09:09;7.40;11.20
32895;DHT22;19251;49.484;8.260;2023-04-20T00:14:12;7.30;11.20
32895;DHT22;19251;49.484;8.260;2023-04-20T00:19:14;7.30;11.30
32895;DHT22;19251;49.484;8.260;2023-04-20T00:24:16;7.30;11.70
32895;DHT22;19251;49.484;8.260;2023-04-20T00:29:18;7.30;11.70
32895;DHT22;19251;49.484;8.260;2023-04-20T00:34:20;7.30;12.10
32895;DHT22;19251;49.484;8.260;2023-04-20T00:39:22;7.20;12.00
32895;DHT22;19251;49.484;8.260;2023-04-20T00:44:24;7.10;11.90
32895;DHT22;19251;49.484;8.260;2023-04-20T00:49:28;7.10;12.00
32895;DHT22;19251;49.484;8.260;2023-04-20T00:54:30;7.00;11.90
32895;DHT22;19251;49.484;8.260;2023-04-20T00:59:33;7.00;11.90
32895;DHT22;19251;49.484;8.260;2023-04-20T01:04:35;7.00;11.90
32895;DHT22;19251;49.484;8.260;2023-04-20T01:09:37;6.90;11.90
32895;DHT22;19251;49.484;8.260;2023-04-20T01:14:43;6.80;12.20
32895;DHT22;19251;49.484;8.260;2023-04-20T01:19:45;6.80;12.40
32895;DHT22;19251;49.484;8.260;2023-04-20T01:24:47;6.70;12.40
32895;DHT22;19251;49.484;8.260;2023-04-20T01:29:49;6.60;12.60
32895;DHT22;19251;49.484;8.260;2023-04-20T01:34:52;6.60;12.80
32895;DHT22;19251;49.484;8.260;2023-04-20T01:39:54;6.50;12.90
32895;DHT22;19251;49.484;8.260;2023-04-20T01:44:56;6.40;12.90
32895;DHT22;19251;49.484;8.260;2023-04-20T01:49:59;6.40;13.10
32895;DHT22;19251;49.484;8.260;2023-04-20T01:55:01;6.30;13.10
32895;DHT22;19251;49.484;8.260;2023-04-20T02:00:04;6.30;13.40
32895;DHT22;19251;49.484;8.260;2023-04-20T02:05:14;6.20;13.60
32895;DHT22;19251;49.484;8.260;2023-04-20T02:10:16;6.20;13.90
32895;DHT22;19251;49.484;8.260;2023-04-20T02:15:19;6.20;14.20
32895;DHT22;19251;49.484;8.260;2023-04-20T02:20:21;6.20;14.20
32895;DHT22;19251;49.484;8.260;2023-04-20T02:25:23;6.10;14.20
32895;DHT22;19251;49.484;8.260;2023-04-20T02:35:27;6.20;14.70
32895;DHT22;19251;49.484;8.260;2023-04-20T02:40:30;6.30;15.00
32895;DHT22;19251;49.484;8.260;2023-04-20T02:45:32;6.40;15.10
32895;DHT22;19251;49.484;8.260;2023-04-20T02:50:34;6.50;15.30
32895;DHT22;19251;49.484;8.260;2023-04-20T02:55:39;6.70;15.50
32895;DHT22;19251;49.484;8.260;2023-04-20T03:00:43;6.80;15.80
32895;DHT22;19251;49.484;8.260;2023-04-20T03:05:45;6.90;15.80
32895;DHT22;19251;49.484;8.260;2023-04-20T03:10:47;7.10;15.90
32895;DHT22;19251;49.484;8.260;2023-04-20T03:15:50;7.10;16.00
32895;DHT22;19251;49.484;8.260;2023-04-20T03:20:54;7.30;16.10
32895;DHT22;19251;49.484;8.260;2023-04-20T03:25:56;7.30;16.30
32895;DHT22;19251;49.484;8.260;2023-04-20T03:30:59;7.50;16.40
32895;DHT22;19251;49.484;8.260;2023-04-20T03:36:03;7.50;16.50
32895;DHT22;19251;49.484;8.260;2023-04-20T03:41:07;7.60;16.40
32895;DHT22;19251;49.484;8.260;2023-04-20T03:46:09;7.70;16.50
32895;DHT22;19251;49.484;8.260;2023-04-20T03:51:11;7.70;16.50
32895;DHT22;19251;49.484;8.260;2023-04-20T03:56:13;7.70;16.30
32895;DHT22;19251;49.484;8.260;2023-04-20T04:01:16;7.60;16.30
32895;DHT22;19251;49.484;8.260;2023-04-20T04:06:19;7.60;16.50
32895;DHT22;19251;49.484;8.260;2023-04-20T04:11:22;7.50;16.40
32895;DHT22;19251;49.484;8.260;2023-04-20T04:16:26;7.50;16.60
32895;DHT22;19251;49.484;8.260;2023-04-20T04:21:28;7.40;16.70
32895;DHT22;19251;49.484;8.260;2023-04-20T04:26:32;7.40;17.00
32895;DHT22;19251;49.484;8.260;2023-04-20T04:31:36;7.40;17.10
32895;DHT22;19251;49.484;8.260;2023-04-20T04:36:39;7.40;17.30
32895;DHT22;19251;49.484;8.260;2023-04-20T04:41:43;7.60;17.50
32895;DHT22;19251;49.484;8.260;2023-04-20T04:46:46;7.60;17.60
32895;DHT22;19251;49.484;8.260;2023-04-20T04:51:49;7.70;17.70
32895;DHT22;19251;49.484;8.260;2023-04-20T04:56:51;7.70;17.70
32895;DHT22;19251;49.484;8.260;2023-04-20T05:01:53;7.80;17.80
32895;DHT22;19251;49.484;8.260;2023-04-20T05:06:55;7.90;17.90
32895;DHT22;19251;49.484;8.260;2023-04-20T05:11:58;8.00;18.00
32895;DHT22;19251;49.484;8.260;2023-04-20T05:17:01;8.00;18.00
32895;DHT22;19251;49.484;8.260;2023-04-20T05:22:03;8.10;18.20
32895;DHT22;19251;49.484;8.260;2023-04-20T05:27:05;8.20;18.50
32895;DHT22;19251;49.484;8.260;2023-04-20T05:32:08;8.30;18.80
32895;DHT22;19251;49.484;8.260;2023-04-20T05:37:10;8.30;18.90
32895;DHT22;19251;49.484;8.260;2023-04-20T05:42:14;8.50;19.10
32895;DHT22;19251;49.484;8.260;2023-04-20T05:47:16;8.50;19.10
32895;DHT22;19251;49.484;8.260;2023-04-20T05:52:18;8.60;19.20
32895;DHT22;19251;49.484;8.260;2023-04-20T05:57:20;8.70;19.30
32895;DHT22;19251;49.484;8.260;2023-04-20T06:02:24;8.80;19.30
32895;DHT22;19251;49.484;8.260;2023-04-20T06:07:26;8.90;19.40
32895;DHT22;19251;49.484;8.260;2023-04-20T06:12:29;9.10;19.50
32895;DHT22;19251;49.484;8.260;2023-04-20T06:17:33;9.20;19.60
32895;DHT22;19251;49.484;8.260;2023-04-20T06:22:35;9.30;19.70
32895;DHT22;19251;49.484;8.260;2023-04-20T06:27:38;9.40;19.70
32895;DHT22;19251;49.484;8.260;2023-04-20T06:32:40;9.60;19.80
32895;DHT22;19251;49.484;8.260;2023-04-20T06:37:42;9.70;19.80
32895;DHT22;19251;49.484;8.260;2023-04-20T06:42:44;9.90;19.90
32895;DHT22;19251;49.484;8.260;2023-04-20T06:47:47;10.10;19.00
32895;DHT22;19251;49.484;8.260;2023-04-20T06:52:49;10.20;19.10
32895;DHT22;19251;49.484;8.260;2023-04-20T06:57:51;10.50;19.00
32895;DHT22;19251;49.484;8.260;2023-04-20T07:02:53;10.80;18.80
32895;DHT22;19251;49.484;8.260;2023-04-20T07:07:55;11.00;18.70
32895;DHT22;19251;49.484;8.260;2023-04-20T07:18:00;11.10;18.00
32895;DHT22;19251;49.484;8.260;2023-04-20T07:23:02;11.10;17.90
32895;DHT22;19251;49.484;8.260;2023-04-20T07:28:04;11.00;17.90
32895;DHT22;19251;49.484;8.260;2023-04-20T07:33:06;11.00;18.10
32895;DHT22;19251;49.484;8.260;2023-04-20T07:38:09;11.10;18.30
32895;DHT22;19251;49.484;8.260;2023-04-20T07:43:11;11.20;18.30
32895;DHT22;19251;49.484;8.260;2023-04-20T07:48:13;11.30;18.20
32895;DHT22;19251;49.484;8.260;2023-04-20T07:53:15;11.40;18.10
32895;DHT22;19251;49.484;8.260;2023-04-20T07:58:18;11.50;18.10
32895;DHT22;19251;49.484;8.260;2023-04-20T08:08:40;11.80;18.10
32895;DHT22;19251;49.484;8.260;2023-04-20T08:13:42;12.00;17.90
32895;DHT22;19251;49.484;8.260;2023-04-20T08:18:44;12.10;17.40
32895;DHT22;19251;49.484;8.260;2023-04-20T08:23:46;12.20;17.40
32895;DHT22;19251;49.484;8.260;2023-04-20T08:28:49;12.30;17.40
32895;DHT22;19251;49.484;8.260;2023-04-20T08:33:51;12.50;17.40
32895;DHT22;19251;49.484;8.260;2023-04-20T08:38:57;12.80;17.20
32895;DHT22;19251;49.484;8.260;2023-04-20T08:44:06;12.90;17.00
32895;DHT22;19251;49.484;8.260;2023-04-20T08:49:10;13.20;16.40
32895;DHT22;19251;49.484;8.260;2023-04-20T08:54:12;13.30;16.30
32895;DHT22;19251;49.484;8.260;2023-04-20T08:59:15;13.60;16.30
32895;DHT22;19251;49.484;8.260;2023-04-20T09:14:23;14.60;15.40
32895;DHT22;19251;49.484;8.260;2023-04-20T09:19:26;14.80;13.70
32895;DHT22;19251;49.484;8.260;2023-04-20T09:24:31;14.80;14.10
32895;DHT22;19251;49.484;8.260;2023-04-20T09:29:34;14.80;13.90
32895;DHT22;19251;49.484;8.260;2023-04-20T09:34:42;14.80;13.50
32895;DHT22;19251;49.484;8.260;2023-04-20T09:39:45;14.80;13.70
32895;DHT22;19251;49.484;8.260;2023-04-20T09:44:47;14.80;13.50
32895;DHT22;19251;49.484;8.260;2023-04-20T09:49:50;14.80;13.60
32895;DHT22;19251;49.484;8.260;2023-04-20T09:54:53;14.80;13.10
32895;DHT22;19251;49.484;8.260;2023-04-20T09:59:55;14.90;13.90
32895;DHT22;19251;49.484;8.260;2023-04-20T10:04:58;15.00;13.60
32895;DHT22;19251;49.484;8.260;2023-04-20T10:10:01;15.10;13.30
32895;DHT22;19251;49.484;8.260;2023-04-20T10:15:04;15.00;13.20
32895;DHT22;19251;49.484;8.260;2023-04-20T10:20:19;15.00;13.20
32895;DHT22;19251;49.484;8.260;2023-04-20T10:25:23;15.20;13.60
32895;DHT22;19251;49.484;8.260;2023-04-20T10:30:26;15.30;13.50
32895;DHT22;19251;49.484;8.260;2023-04-20T10:35:39;14.70;13.30
32895;DHT22;19251;49.484;8.260;2023-04-20T10:40:41;15.90;13.70
32895;DHT22;19251;49.484;8.260;2023-04-20T10:45:43;16.00;12.80
32895;DHT22;19251;49.484;8.260;2023-04-20T10:50:45;16.10;12.60
32895;DHT22;19251;49.484;8.260;2023-04-20T10:55:57;16.10;12.40
32895;DHT22;19251;49.484;8.260;2023-04-20T11:01:00;16.10;12.20
32895;DHT22;19251;49.484;8.260;2023-04-20T11:06:03;16.20;12.20
32895;DHT22;19251;49.484;8.260;2023-04-20T11:11:16;16.30;12.00
32895;DHT22;19251;49.484;8.260;2023-04-20T11:16:18;16.30;11.90
32895;DHT22;19251;49.484;8.260;2023-04-20T11:21:21;16.50;11.00
32895;DHT22;19251;49.484;8.260;2023-04-20T11:31:25;16.70;10.80
32895;DHT22;19251;49.484;8.260;2023-04-20T11:36:29;17.00;11.00
32895;DHT22;19251;49.484;8.260;2023-04-20T11:41:31;17.20;10.90
32895;DHT22;19251;49.484;8.260;2023-04-20T11:46:34;17.30;10.10
32895;DHT22;19251;49.484;8.260;2023-04-20T11:51:38;17.30;10.40
32895;DHT22;19251;49.484;8.260;2023-04-20T11:56:41;17.40;10.00
32895;DHT22;19251;49.484;8.260;2023-04-20T12:01:43;17.50;10.30
32895;DHT22;19251;49.484;8.260;2023-04-20T12:06:46;17.60;9.10
32895;DHT22;19251;49.484;8.260;2023-04-20T12:11:48;17.70;8.50
32895;DHT22;19251;49.484;8.260;2023-04-20T12:16:50;17.70;8.80
32895;DHT22;19251;49.484;8.260;2023-04-20T12:21:52;17.30;8.90
32895;DHT22;19251;49.484;8.260;2023-04-20T12:26:54;17.10;9.40
32895;DHT22;19251;49.484;8.260;2023-04-20T12:31:56;16.80;9.90
32895;DHT22;19251;49.484;8.260;2023-04-20T12:36:58;16.60;10.10
32895;DHT22;19251;49.484;8.260;2023-04-20T12:42:01;16.40;10.70
32895;DHT22;19251;49.484;8.260;2023-04-20T12:47:04;16.50;11.20
32895;DHT22;19251;49.484;8.260;2023-04-20T12:52:07;16.70;10.30
32895;DHT22;19251;49.484;8.260;2023-04-20T12:57:09;16.70;10.10
32895;DHT22;19251;49.484;8.260;2023-04-20T13:02:11;16.70;10.40
32895;DHT22;19251;49.484;8.260;2023-04-20T13:07:14;16.50;11.00
32895;DHT22;19251;49.484;8.260;2023-04-20T13:12:16;16.30;11.30
32895;DHT22;19251;49.484;8.260;2023-04-20T13:17:18;16.10;11.50
32895;DHT22;19251;49.484;8.260;2023-04-20T13:22:20;15.80;12.00
32895;DHT22;19251;49.484;8.260;2023-04-20T13:27:22;15.80;12.60
32895;DHT22;19251;49.484;8.260;2023-04-20T13:32:24;15.80;12.60
32895;DHT22;19251;49.484;8.260;2023-04-20T13:37:27;16.00;13.10
32895;DHT22;19251;49.484;8.260;2023-04-20T13:42:29;16.10;13.20
32895;DHT22;19251;49.484;8.260;2023-04-20T13:47:31;16.20;12.70
32895;DHT22;19251;49.484;8.260;2023-04-20T13:52:34;16.30;12.40
32895;DHT22;19251;49.484;8.260;2023-04-20T13:57:36;16.40;12.40
32895;DHT22;19251;49.484;8.260;2023-04-20T14:02:38;16.40;12.20
32895;DHT22;19251;49.484;8.260;2023-04-20T14:07:40;16.50;12.00
32895;DHT22;19251;49.484;8.260;2023-04-20T14:12:42;16.50;11.90
32895;DHT22;19251;49.484;8.260;2023-04-20T14:17:44;16.50;12.50
32895;DHT22;19251;49.484;8.260;2023-04-20T14:22:46;16.60;12.40
32895;DHT22;19251;49.484;8.260;2023-04-20T14:27:49;16.40;12.40
32895;DHT22;19251;49.484;8.260;2023-04-20T14:32:57;16.10;12.80
32895;DHT22;19251;49.484;8.260;2023-04-20T14:38:00;15.80;12.70
32895;DHT22;19251;49.484;8.260;2023-04-20T14:43:02;15.60;13.10
32895;DHT22;19251;49.484;8.260;2023-04-20T14:48:04;15.60;13.50
32895;DHT22;19251;49.484;8.260;2023-04-20T14:53:06;15.50;13.40
32895;DHT22;19251;49.484;8.260;2023-04-20T14:58:08;15.50;13.40
32895;DHT22;19251;49.484;8.260;2023-04-20T15:03:11;15.50;13.70
32895;DHT22;19251;49.484;8.260;2023-04-20T15:08:14;15.50;14.00
32895;DHT22;19251;49.484;8.260;2023-04-20T15:13:16;15.50;14.20
32895;DHT22;19251;49.484;8.260;2023-04-20T15:18:18;15.40;14.20
32895;DHT22;19251;49.484;8.260;2023-04-20T15:23:20;15.20;14.00
32895;DHT22;19251;49.484;8.260;2023-04-20T15:28:22;15.10;14.20
32895;DHT22;19251;49.484;8.260;2023-04-20T15:33:24;14.90;14.50
32895;DHT22;19251;49.484;8.260;2023-04-20T15:38:26;14.70;14.40
32895;DHT22;19251;49.484;8.260;2023-04-20T15:43:28;14.70;14.60
32895;DHT22;19251;49.484;8.260;2023-04-20T15:48:30;14.60;15.00
32895;DHT22;19251;49.484;8.260;2023-04-20T15:53:32;14.50;14.70
32895;DHT22;19251;49.484;8.260;2023-04-20T15:58:34;14.40;15.10
32895;DHT22;19251;49.484;8.260;2023-04-20T16:03:36;14.30;15.30
32895;DHT22;19251;49.484;8.260;2023-04-20T16:08:40;14.20;15.20
32895;DHT22;19251;49.484;8.260;2023-04-20T16:13:42;14.20;15.50
32895;DHT22;19251;49.484;8.260;2023-04-20T16:18:44;14.10;15.50
32895;DHT22;19251;49.484;8.260;2023-04-20T16:23:49;14.20;15.60
32895;DHT22;19251;49.484;8.260;2023-04-20T16:28:52;14.20;15.90
32895;DHT22;19251;49.484;8.260;2023-04-20T16:33:55;14.20;16.00
32895;DHT22;19251;49.484;8.260;2023-04-20T16:38:58;14.20;15.70
32895;DHT22;19251;49.484;8.260;2023-04-20T16:44:02;14.30;15.90
32895;DHT22;19251;49.484;8.260;2023-04-20T16:49:05;14.30;16.00
32895;DHT22;19251;49.484;8.260;2023-04-20T16:54:07;14.30;16.00
32895;DHT22;19251;49.484;8.260;2023-04-20T16:59:11;14.30;16.10
32895;DHT22;19251;49.484;8.260;2023-04-20T17:04:13;14.20;16.00
32895;DHT22;19251;49.484;8.260;2023-04-20T17:09:15;14.20;16.40
32895;DHT22;19251;49.484;8.260;2023-04-20T17:14:17;14.10;16.10
32895;DHT22;19251;49.484;8.260;2023-04-20T17:19:20;14.00;16.20
32895;DHT22;19251;49.484;8.260;2023-04-20T17:24:22;13.90;16.50
32895;DHT22;19251;49.484;8.260;2023-04-20T17:29:24;13.90;16.90
32895;DHT22;19251;49.484;8.260;2023-04-20T17:34:27;13.80;17.00
32895;DHT22;19251;49.484;8.260;2023-04-20T17:39:29;13.70;17.00
32895;DHT22;19251;49.484;8.260;2023-04-20T17:44:32;13.70;17.30
32895;DHT22;19251;49.484;8.260;2023-04-20T17:49:34;13.70;17.40
32895;DHT22;19251;49.484;8.260;2023-04-20T17:54:37;13.60;17.70
32895;DHT22;19251;49.484;8.260;2023-04-20T17:59:39;13.60;18.00
32895;DHT22;19251;49.484;8.260;2023-04-20T18:04:43;13.50;18.00
32895;DHT22;19251;49.484;8.260;2023-04-20T18:09:45;13.40;18.00
32895;DHT22;19251;49.484;8.260;2023-04-20T18:14:47;13.40;18.50
32895;DHT22;19251;49.484;8.260;2023-04-20T18:19:49;13.40;18.70
32895;DHT22;19251;49.484;8.260;2023-04-20T18:24:52;13.40;18.60
32895;DHT22;19251;49.484;8.260;2023-04-20T18:29:54;13.40;18.80
32895;DHT22;19251;49.484;8.260;2023-04-20T18:35:01;13.40;18.90
32895;DHT22;19251;49.484;8.260;2023-04-20T18:40:03;13.40;18.90
32895;DHT22;19251;49.484;8.260;2023-04-20T18:45:05;13.30;19.30
32895;DHT22;19251;49.484;8.260;2023-04-20T18:50:08;13.40;19.50
32895;DHT22;19251;49.484;8.260;2023-04-20T18:55:10;13.30;19.40
32895;DHT22;19251;49.484;8.260;2023-04-20T19:15:54;13.20;19.90
32895;DHT22;19251;49.484;8.260;2023-04-20T19:20:58;13.20;20.30
32895;DHT22;19251;49.484;8.260;2023-04-20T19:26:00;13.00;20.40
32895;DHT22;19251;49.484;8.260;2023-04-20T19:31:02;13.00;20.70
32895;DHT22;19251;49.484;8.260;2023-04-20T19:36:04;12.90;20.90
32895;DHT22;19251;49.484;8.260;2023-04-20T19:41:10;12.80;21.10
32895;DHT22;19251;49.484;8.260;2023-04-20T19:46:12;12.70;21.30
32895;DHT22;19251;49.484;8.260;2023-04-20T19:51:18;12.60;21.40
32895;DHT22;19251;49.484;8.260;2023-04-20T19:56:20;12.60;21.50
32895;DHT22;19251;49.484;8.260;2023-04-20T20:01:22;12.60;21.70
32895;DHT22;19251;49.484;8.260;2023-04-20T20:06:24;12.50;21.80
32895;DHT22;19251;49.484;8.260;2023-04-20T20:11:27;12.50;21.90
32895;DHT22;19251;49.484;8.260;2023-04-20T20:16:29;12.50;22.20
32895;DHT22;19251;49.484;8.260;2023-04-20T20:21:32;12.50;22.40
32895;DHT22;19251;49.484;8.260;2023-04-20T20:26:34;12.40;22.60
32895;DHT22;19251;49.484;8.260;2023-04-20T20:31:36;12.40;22.60
32895;DHT22;19251;49.484;8.260;2023-04-20T20:36:38;12.30;22.70
32895;DHT22;19251;49.484;8.260;2023-04-20T20:41:43;12.30;22.90
32895;DHT22;19251;49.484;8.260;2023-04-20T20:46:47;12.30;23.00
32895;DHT22;19251;49.484;8.260;2023-04-20T20:51:49;12.30;23.20
32895;DHT22;19251;49.484;8.260;2023-04-20T20:56:52;12.30;23.30
32895;DHT22;19251;49.484;8.260;2023-04-20T21:01:54;12.20;23.20
32895;DHT22;19251;49.484;8.260;2023-04-20T21:06:57;12.30;23.60
32895;DHT22;19251;49.484;8.260;2023-04-20T21:11:59;12.30;23.70
32895;DHT22;19251;49.484;8.260;2023-04-20T21:17:01;12.20;23.60
32895;DHT22;19251;49.484;8.260;2023-04-20T21:22:03;12.20;23.80
32895;DHT22;19251;49.484;8.260;2023-04-20T21:27:06;12.10;23.80
32895;DHT22;19251;49.484;8.260;2023-04-20T21:32:08;12.20;24.00
32895;DHT22;19251;49.484;8.260;2023-04-20T21:37:10;12.20;24.00
32895;DHT22;19251;49.484;8.260;2023-04-20T21:42:12;12.20;24.10
32895;DHT22;19251;49.484;8.260;2023-04-20T21:47:15;12.20;24.10
32895;DHT22;19251;49.484;8.260;2023-04-20T21:52:17;12.20;24.10
32895;DHT22;19251;49.484;8.260;2023-04-20T21:57:19;12.20;24.10
32895;DHT22;19251;49.484;8.260;2023-04-20T22:02:21;12.20;24.10
32895;DHT22;19251;49.484;8.260;2023-04-20T22:07:24;12.10;24.00
32895;DHT22;19251;49.484;8.260;2023-04-20T22:12:28;12.10;23.90
32895;DHT22;19251;49.484;8.260;2023-04-20T22:17:40;11.90;23.60
32895;DHT22;19251;49.484;8.260;2023-04-20T22:22:46;11.80;23.60
32895;DHT22;19251;49.484;8.260;2023-04-20T22:27:48;11.60;23.40
32895;DHT22;19251;49.484;8.260;2023-04-20T22:32:50;11.40;23.50
32895;DHT22;19251;49.484;8.260;2023-04-20T22:37:52;11.30;23.60
32895;DHT22;19251;49.484;8.260;2023-04-20T22:42:54;11.20;23.60
32895;DHT22;19251;49.484;8.260;2023-04-20T22:47:57;11.10;23.70
32895;DHT22;19251;49.484;8.260;2023-04-20T22:52:59;11.00;23.70
32895;DHT22;19251;49.484;8.260;2023-04-20T22:58:01;10.90;23.70
32895;DHT22;19251;49.484;8.260;2023-04-20T23:03:03;10.80;23.70
32895;DHT22;19251;49.484;8.260;2023-04-20T23:08:05;10.70;23.50
32895;DHT22;19251;49.484;8.260;2023-04-20T23:13:07;10.60;23.40
32895;DHT22;19251;49.484;8.260;2023-04-20T23:18:17;10.40;23.30
32895;DHT22;19251;49.484;8.260;2023-04-20T23:23:19;10.30;23.30
32895;DHT22;19251;49.484;8.260;2023-04-20T23:28:21;10.10;23.30
32895;DHT22;19251;49.484;8.260;2023-04-20T23:33:23;9.90;24.00
32895;DHT22;19251;49.484;8.260;2023-04-20T23:38:25;9.80;24.00
32895;DHT22;19251;49.484;8.260;2023-04-20T23:43:27;9.70;24.10
32895;DHT22;19251;49.484;8.260;2023-04-20T23:48:29;9.60;24.20
32895;DHT22;19251;49.484;8.260;2023-04-20T23:53:33;9.40;24.10
32895;DHT22;19251;49.484;8.260;2023-04-20T23:58:35;9.30;24.10
